sensor_id;sensor_type;location;lat;lon;timestamp;P1;durP1;ratioP1;P2;durP2;ratioP2
3231;SDS011;1628;48.884;9.210;2022-08-11T06:02:48;5.43;;;3.60;;
3231;SDS011;1628;48.884;9.210;2022-08-11T06:05:19;3.53;;;3.33;;
3231;SDS011;1628;48.884;9.210;2022-08-11T06:07:46;3.83;;;3.50;;
3231;SDS011;1628;48.884;9.210;2022-08-11T06:10:15;5.80;;;3.77;;
3231;SDS011;1628;48.884;9.210;2022-08-11T06:12:52;5.50;;;3.23;;
3231;SDS011;1628;48.884;9.210;2022-08-11T06:15:19;4.03;;;3.63;;
3231;SDS011;1628;48.884;9.210;2022-08-11T06:17:48;4.03;;;3.67;;
3231;SDS011;1628;48.884;9.210;2022-08-11T06:20:17;9.70;;;3.50;;
3231;SDS011;1628;48.884;9.210;2022-08-11T06:22:46;7.00;;;3.20;;
3231;SDS011;1628;48.884;9.210;2022-08-11T06:25:20;4.00;;;3.63;;
3231;SDS011;1628;48.884;9.210;2022-08-11T06:27:53;4.17;;;3.70;;
3231;SDS011;1628;48.884;9.210;2022-08-11T06:30:22;4.90;;;3.50;;
3231;SDS011;1628;48.884;9.210;2022-08-11T06:33:00;3.30;;;3.10;;
3231;SDS011;1628;48.884;9.210;2022-08-11T06:35:32;4.47;;;3.33;;
3231;SDS011;1628;48.884;9.210;2022-08-11T06:38:11;3.47;;;3.27;;
3231;SDS011;1628;48.884;9.210;2022-08-11T06:40:45;6.33;;;3.40;;
3231;SDS011;1628;48.884;9.210;2022-08-11T06:43:33;6.40;;;3.60;;
3231;SDS011;1628;48.884;9.210;2022-08-11T06:46:10;6.43;;;3.73;;
3231;SDS011;1628;48.884;9.210;2022-08-11T06:48:43;5.50;;;3.80;;
3231;SDS011;1628;48.884;9.210;2022-08-11T06:51:11;3.90;;;3.60;;
3231;SDS011;1628;48.884;9.210;2022-08-11T06:53:38;5.47;;;3.30;;
3231;SDS011;1628;48.884;9.210;2022-08-11T06:56:08;6.47;;;3.80;;
3231;SDS011;1628;48.884;9.210;2022-08-11T06:58:53;3.93;;;3.63;;
3231;SDS011;1628;48.884;9.210;2022-08-11T07:01:40;6.30;;;3.47;;
3231;SDS011;1628;48.884;9.210;2022-08-11T07:04:17;4.30;;;3.40;;
3231;SDS011;1628;48.884;9.210;2022-08-11T07:06:54;3.80;;;3.50;;
3231;SDS011;1628;48.884;9.210;2022-08-11T07:09:54;3.50;;;3.10;;
3231;SDS011;1628;48.884;9.210;2022-08-11T07:13:06;4.93;;;3.50;;
3231;SDS011;1628;48.884;9.210;2022-08-11T07:15:52;4.40;;;3.33;;
3231;SDS011;1628;48.884;9.210;2022-08-11T07:18:24;3.50;;;3.23;;
3231;SDS011;1628;48.884;9.210;2022-08-11T07:21:12;5.53;;;4.00;;
3231;SDS011;1628;48.884;9.210;2022-08-11T07:24:01;4.70;;;3.43;;
3231;SDS011;1628;48.884;9.210;2022-08-11T07:26:49;6.10;;;3.30;;
3231;SDS011;1628;48.884;9.210;2022-08-11T07:29:36;4.23;;;3.47;;
3231;SDS011;1628;48.884;9.210;2022-08-11T07:32:14;5.07;;;3.20;;
3231;SDS011;1628;48.884;9.210;2022-08-11T07:34:48;3.80;;;3.50;;
3231;SDS011;1628;48.884;9.210;2022-08-11T07:37:19;3.10;;;2.80;;
3231;SDS011;1628;48.884;9.210;2022-08-11T07:39:48;3.90;;;3.40;;
3231;SDS011;1628;48.884;9.210;2022-08-11T07:42:18;6.33;;;3.83;;
3231;SDS011;1628;48.884;9.210;2022-08-11T07:44:48;3.60;;;3.40;;
3231;SDS011;1628;48.884;9.210;2022-08-11T07:47:35;3.87;;;3.30;;
3231;SDS011;1628;48.884;9.210;2022-08-11T07:50:20;3.60;;;2.80;;
3231;SDS011;1628;48.884;9.210;2022-08-11T07:53:07;3.93;;;3.00;;
3231;SDS011;1628;48.884;9.210;2022-08-11T07:55:35;7.23;;;2.97;;
3231;SDS011;1628;48.884;9.210;2022-08-11T07:58:02;3.00;;;2.70;;
3231;SDS011;1628;48.884;9.210;2022-08-11T08:00:48;3.00;;;2.80;;
3231;SDS011;1628;48.884;9.210;2022-08-11T08:03:34;3.90;;;3.13;;
3231;SDS011;1628;48.884;9.210;2022-08-11T08:06:20;3.43;;;2.90;;
3231;SDS011;1628;48.884;9.210;2022-08-11T08:09:07;3.30;;;3.00;;
3231;SDS011;1628;48.884;9.210;2022-08-11T08:11:52;3.47;;;2.83;;
3231;SDS011;1628;48.884;9.210;2022-08-11T08:14:37;3.33;;;3.13;;
3231;SDS011;1628;48.884;9.210;2022-08-11T08:17:22;4.60;;;4.20;;
3231;SDS011;1628;48.884;9.210;2022-08-11T08:20:09;6.67;;;3.00;;
3231;SDS011;1628;48.884;9.210;2022-08-11T08:22:38;2.47;;;2.37;;
3231;SDS011;1628;48.884;9.210;2022-08-11T08:25:07;3.17;;;2.97;;
3231;SDS011;1628;48.884;9.210;2022-08-11T08:27:35;3.27;;;3.03;;
3231;SDS011;1628;48.884;9.210;2022-08-11T08:30:03;2.83;;;2.63;;
3231;SDS011;1628;48.884;9.210;2022-08-11T08:32:48;4.30;;;3.90;;
3231;SDS011;1628;48.884;9.210;2022-08-11T08:35:17;3.40;;;3.10;;
3231;SDS011;1628;48.884;9.210;2022-08-11T08:37:45;9.60;;;3.27;;
3231;SDS011;1628;48.884;9.210;2022-08-11T08:40:16;7.47;;;2.70;;
3231;SDS011;1628;48.884;9.210;2022-08-11T08:42:45;3.13;;;2.83;;
3231;SDS011;1628;48.884;9.210;2022-08-11T08:45:15;3.53;;;2.70;;
3231;SDS011;1628;48.884;9.210;2022-08-11T08:47:44;3.73;;;3.43;;
3231;SDS011;1628;48.884;9.210;2022-08-11T08:50:13;4.50;;;2.90;;
3231;SDS011;1628;48.884;9.210;2022-08-11T08:52:44;3.03;;;2.60;;
3231;SDS011;1628;48.884;9.210;2022-08-11T08:55:18;3.20;;;3.00;;
3231;SDS011;1628;48.884;9.210;2022-08-11T08:57:47;2.90;;;2.80;;
3231;SDS011;1628;48.884;9.210;2022-08-11T09:00:15;3.67;;;2.07;;
3231;SDS011;1628;48.884;9.210;2022-08-11T09:02:43;3.40;;;2.47;;
3231;SDS011;1628;48.884;9.210;2022-08-11T09:05:10;2.83;;;2.30;;
3231;SDS011;1628;48.884;9.210;2022-08-11T09:07:38;8.00;;;2.60;;
3231;SDS011;1628;48.884;9.210;2022-08-11T09:10:06;4.53;;;2.63;;
3231;SDS011;1628;48.884;9.210;2022-08-11T09:12:36;2.93;;;2.53;;
3231;SDS011;1628;48.884;9.210;2022-08-11T09:15:06;3.70;;;2.27;;
3231;SDS011;1628;48.884;9.210;2022-08-11T09:17:36;5.83;;;2.20;;
3231;SDS011;1628;48.884;9.210;2022-08-11T09:20:05;3.20;;;2.90;;
3231;SDS011;1628;48.884;9.210;2022-08-11T09:22:34;2.30;;;2.10;;
3231;SDS011;1628;48.884;9.210;2022-08-11T09:25:20;4.03;;;2.60;;
3231;SDS011;1628;48.884;9.210;2022-08-11T09:28:10;6.67;;;2.63;;
3231;SDS011;1628;48.884;9.210;2022-08-11T09:30:39;2.00;;;1.80;;
3231;SDS011;1628;48.884;9.210;2022-08-11T09:33:08;2.33;;;2.20;;
3231;SDS011;1628;48.884;9.210;2022-08-11T09:35:37;2.90;;;2.50;;
3231;SDS011;1628;48.884;9.210;2022-08-11T09:38:06;6.73;;;2.20;;
3231;SDS011;1628;48.884;9.210;2022-08-11T09:40:54;2.90;;;2.33;;
3231;SDS011;1628;48.884;9.210;2022-08-11T09:43:22;2.10;;;1.97;;
3231;SDS011;1628;48.884;9.210;2022-08-11T09:46:08;2.07;;;1.90;;
3231;SDS011;1628;48.884;9.210;2022-08-11T09:48:37;2.10;;;2.00;;
3231;SDS011;1628;48.884;9.210;2022-08-11T09:51:06;2.50;;;2.10;;
3231;SDS011;1628;48.884;9.210;2022-08-11T09:53:36;2.37;;;2.17;;
3231;SDS011;1628;48.884;9.210;2022-08-11T09:56:04;2.30;;;2.20;;
3231;SDS011;1628;48.884;9.210;2022-08-11T09:58:49;2.40;;;2.20;;
3231;SDS011;1628;48.884;9.210;2022-08-11T10:01:19;4.60;;;2.20;;
3231;SDS011;1628;48.884;9.210;2022-08-11T10:03:54;2.33;;;2.10;;
3231;SDS011;1628;48.884;9.210;2022-08-11T10:06:25;3.07;;;2.30;;
3231;SDS011;1628;48.884;9.210;2022-08-11T10:09:10;5.50;;;2.43;;
3231;SDS011;1628;48.884;9.210;2022-08-11T10:11:40;2.13;;;2.03;;
3231;SDS011;1628;48.884;9.210;2022-08-11T10:14:09;1.80;;;1.80;;
3231;SDS011;1628;48.884;9.210;2022-08-11T10:16:55;2.40;;;2.30;;
3231;SDS011;1628;48.884;9.210;2022-08-11T10:19:22;2.53;;;2.43;;
3231;SDS011;1628;48.884;9.210;2022-08-11T10:21:50;4.47;;;2.73;;
3231;SDS011;1628;48.884;9.210;2022-08-11T10:24:32;2.40;;;2.30;;
3231;SDS011;1628;48.884;9.210;2022-08-11T10:27:16;2.33;;;2.10;;
3231;SDS011;1628;48.884;9.210;2022-08-11T10:29:45;2.50;;;2.40;;
3231;SDS011;1628;48.884;9.210;2022-08-11T10:32:27;4.50;;;2.10;;
3231;SDS011;1628;48.884;9.210;2022-08-11T10:35:13;2.20;;;2.13;;
3231;SDS011;1628;48.884;9.210;2022-08-11T10:37:41;2.40;;;2.20;;
3231;SDS011;1628;48.884;9.210;2022-08-11T10:40:12;4.00;;;2.30;;
3231;SDS011;1628;48.884;9.210;2022-08-11T10:42:40;2.97;;;2.10;;
3231;SDS011;1628;48.884;9.210;2022-08-11T10:45:26;2.13;;;2.03;;
3231;SDS011;1628;48.884;9.210;2022-08-11T10:48:12;2.10;;;2.00;;
3231;SDS011;1628;48.884;9.210;2022-08-11T10:50:42;4.10;;;2.30;;
3231;SDS011;1628;48.884;9.210;2022-08-11T10:53:29;3.00;;;2.20;;
3231;SDS011;1628;48.884;9.210;2022-08-11T10:56:13;2.30;;;2.20;;
3231;SDS011;1628;48.884;9.210;2022-08-11T10:58:59;2.87;;;2.30;;
3231;SDS011;1628;48.884;9.210;2022-08-11T11:01:30;2.13;;;1.93;;
3231;SDS011;1628;48.884;9.210;2022-08-11T11:03:59;2.80;;;2.30;;
3231;SDS011;1628;48.884;9.210;2022-08-11T11:06:32;2.07;;;1.97;;
3231;SDS011;1628;48.884;9.210;2022-08-11T11:09:10;3.30;;;2.53;;
3231;SDS011;1628;48.884;9.210;2022-08-11T11:11:41;2.47;;;2.37;;
3231;SDS011;1628;48.884;9.210;2022-08-11T11:14:31;2.23;;;2.03;;
3231;SDS011;1628;48.884;9.210;2022-08-11T11:17:21;2.30;;;1.70;;
3231;SDS011;1628;48.884;9.210;2022-08-11T11:20:10;1.80;;;1.70;;
3231;SDS011;1628;48.884;9.210;2022-08-11T11:22:41;3.47;;;2.20;;
3231;SDS011;1628;48.884;9.210;2022-08-11T11:25:18;2.40;;;2.30;;
3231;SDS011;1628;48.884;9.210;2022-08-11T11:28:04;2.30;;;2.10;;
3231;SDS011;1628;48.884;9.210;2022-08-11T11:30:45;3.00;;;2.70;;
3231;SDS011;1628;48.884;9.210;2022-08-11T11:33:25;3.90;;;3.30;;
3231;SDS011;1628;48.884;9.210;2022-08-11T11:36:07;2.30;;;2.13;;
3231;SDS011;1628;48.884;9.210;2022-08-11T11:38:39;3.53;;;2.50;;
3231;SDS011;1628;48.884;9.210;2022-08-11T11:41:07;2.50;;;2.10;;
3231;SDS011;1628;48.884;9.210;2022-08-11T11:43:53;2.20;;;2.00;;
3231;SDS011;1628;48.884;9.210;2022-08-11T11:46:21;2.00;;;1.90;;
3231;SDS011;1628;48.884;9.210;2022-08-11T11:48:53;2.20;;;2.07;;
3231;SDS011;1628;48.884;9.210;2022-08-11T11:51:20;2.10;;;2.00;;
3231;SDS011;1628;48.884;9.210;2022-08-11T11:53:48;2.30;;;2.20;;
3231;SDS011;1628;48.884;9.210;2022-08-11T11:56:16;2.07;;;2.07;;
3231;SDS011;1628;48.884;9.210;2022-08-11T11:58:44;2.23;;;2.13;;
3231;SDS011;1628;48.884;9.210;2022-08-11T12:01:31;2.00;;;1.90;;
3231;SDS011;1628;48.884;9.210;2022-08-11T12:04:00;2.20;;;2.10;;
3231;SDS011;1628;48.884;9.210;2022-08-11T12:06:30;2.10;;;2.00;;
3231;SDS011;1628;48.884;9.210;2022-08-11T12:08:58;2.57;;;2.30;;
3231;SDS011;1628;48.884;9.210;2022-08-11T12:11:26;3.80;;;1.80;;
3231;SDS011;1628;48.884;9.210;2022-08-11T12:14:12;4.00;;;2.10;;
3231;SDS011;1628;48.884;9.210;2022-08-11T12:16:42;2.40;;;2.20;;
3231;SDS011;1628;48.884;9.210;2022-08-11T12:19:13;2.67;;;2.57;;
3231;SDS011;1628;48.884;9.210;2022-08-11T12:21:42;3.20;;;2.40;;
3231;SDS011;1628;48.884;9.210;2022-08-11T12:24:24;3.13;;;2.70;;
3231;SDS011;1628;48.884;9.210;2022-08-11T12:27:10;2.80;;;2.10;;
3231;SDS011;1628;48.884;9.210;2022-08-11T12:29:48;1.97;;;1.87;;
3231;SDS011;1628;48.884;9.210;2022-08-11T12:32:16;2.70;;;2.50;;
3231;SDS011;1628;48.884;9.210;2022-08-11T12:34:45;2.20;;;2.00;;
3231;SDS011;1628;48.884;9.210;2022-08-11T12:37:12;2.13;;;1.90;;
3231;SDS011;1628;48.884;9.210;2022-08-11T12:39:42;2.83;;;1.97;;
3231;SDS011;1628;48.884;9.210;2022-08-11T12:42:29;2.17;;;2.07;;
3231;SDS011;1628;48.884;9.210;2022-08-11T12:45:16;4.50;;;2.17;;
3231;SDS011;1628;48.884;9.210;2022-08-11T12:48:01;2.70;;;2.10;;
3231;SDS011;1628;48.884;9.210;2022-08-11T12:50:51;5.13;;;2.27;;
3231;SDS011;1628;48.884;9.210;2022-08-11T12:53:41;2.30;;;2.20;;
3231;SDS011;1628;48.884;9.210;2022-08-11T12:56:11;2.30;;;2.17;;
3231;SDS011;1628;48.884;9.210;2022-08-11T12:58:56;2.20;;;2.00;;
3231;SDS011;1628;48.884;9.210;2022-08-11T13:01:41;3.20;;;2.80;;
3231;SDS011;1628;48.884;9.210;2022-08-11T13:04:26;2.60;;;2.40;;
3231;SDS011;1628;48.884;9.210;2022-08-11T13:07:13;2.10;;;2.00;;
3231;SDS011;1628;48.884;9.210;2022-08-11T13:09:41;2.20;;;2.10;;
3231;SDS011;1628;48.884;9.210;2022-08-11T13:12:10;2.20;;;2.00;;
3231;SDS011;1628;48.884;9.210;2022-08-11T13:14:54;4.70;;;1.93;;
3231;SDS011;1628;48.884;9.210;2022-08-11T13:17:22;2.23;;;2.13;;
3231;SDS011;1628;48.884;9.210;2022-08-11T13:19:50;2.03;;;1.93;;
3231;SDS011;1628;48.884;9.210;2022-08-11T13:22:20;4.50;;;2.27;;
3231;SDS011;1628;48.884;9.210;2022-08-11T13:24:48;2.03;;;1.93;;
3231;SDS011;1628;48.884;9.210;2022-08-11T13:27:16;7.17;;;1.70;;
3231;SDS011;1628;48.884;9.210;2022-08-11T13:29:44;2.00;;;1.90;;
3231;SDS011;1628;48.884;9.210;2022-08-11T13:32:14;2.43;;;2.20;;
3231;SDS011;1628;48.884;9.210;2022-08-11T13:34:41;2.17;;;2.07;;
3231;SDS011;1628;48.884;9.210;2022-08-11T13:37:09;1.97;;;1.80;;
3231;SDS011;1628;48.884;9.210;2022-08-11T13:39:41;2.63;;;2.40;;
3231;SDS011;1628;48.884;9.210;2022-08-11T13:42:11;2.40;;;1.90;;
3231;SDS011;1628;48.884;9.210;2022-08-11T13:44:43;4.07;;;1.90;;
3231;SDS011;1628;48.884;9.210;2022-08-11T13:47:11;2.03;;;1.90;;
3231;SDS011;1628;48.884;9.210;2022-08-11T13:49:39;1.90;;;1.80;;
3231;SDS011;1628;48.884;9.210;2022-08-11T13:52:09;2.00;;;1.80;;
3231;SDS011;1628;48.884;9.210;2022-08-11T13:54:38;3.43;;;2.17;;
3231;SDS011;1628;48.884;9.210;2022-08-11T13:57:08;2.50;;;1.87;;
3231;SDS011;1628;48.884;9.210;2022-08-11T13:59:38;3.40;;;1.93;;
3231;SDS011;1628;48.884;9.210;2022-08-11T14:02:07;3.23;;;2.13;;
3231;SDS011;1628;48.884;9.210;2022-08-11T14:04:40;2.83;;;1.90;;
3231;SDS011;1628;48.884;9.210;2022-08-11T14:07:10;6.93;;;2.30;;
3231;SDS011;1628;48.884;9.210;2022-08-11T14:09:41;1.63;;;1.60;;
3231;SDS011;1628;48.884;9.210;2022-08-11T14:12:12;2.17;;;2.03;;
3231;SDS011;1628;48.884;9.210;2022-08-11T14:15:00;3.73;;;2.33;;
3231;SDS011;1628;48.884;9.210;2022-08-11T14:17:31;2.43;;;1.73;;
3231;SDS011;1628;48.884;9.210;2022-08-11T14:20:00;2.37;;;2.20;;
3231;SDS011;1628;48.884;9.210;2022-08-11T14:22:30;4.20;;;2.20;;
3231;SDS011;1628;48.884;9.210;2022-08-11T14:24:58;3.80;;;1.80;;
3231;SDS011;1628;48.884;9.210;2022-08-11T14:27:25;1.93;;;1.90;;
3231;SDS011;1628;48.884;9.210;2022-08-11T14:29:55;1.83;;;1.73;;
3231;SDS011;1628;48.884;9.210;2022-08-11T14:32:22;2.30;;;1.60;;
3231;SDS011;1628;48.884;9.210;2022-08-11T14:34:50;2.20;;;1.93;;
3231;SDS011;1628;48.884;9.210;2022-08-11T14:37:19;1.70;;;1.60;;
3231;SDS011;1628;48.884;9.210;2022-08-11T14:39:48;3.33;;;2.13;;
3231;SDS011;1628;48.884;9.210;2022-08-11T14:42:19;1.77;;;1.67;;
3231;SDS011;1628;48.884;9.210;2022-08-11T14:45:07;2.77;;;2.00;;
3231;SDS011;1628;48.884;9.210;2022-08-11T14:47:53;3.30;;;1.80;;
3231;SDS011;1628;48.884;9.210;2022-08-11T14:50:25;2.30;;;2.20;;
3231;SDS011;1628;48.884;9.210;2022-08-11T14:52:55;2.23;;;2.03;;
3231;SDS011;1628;48.884;9.210;2022-08-11T14:55:24;3.13;;;2.87;;
3231;SDS011;1628;48.884;9.210;2022-08-11T14:58:13;2.40;;;2.27;;
3231;SDS011;1628;48.884;9.210;2022-08-11T15:00:43;3.40;;;2.17;;
3231;SDS011;1628;48.884;9.210;2022-08-11T15:03:11;2.20;;;2.00;;
3231;SDS011;1628;48.884;9.210;2022-08-11T15:05:39;2.23;;;2.03;;
3231;SDS011;1628;48.884;9.210;2022-08-11T15:08:11;6.27;;;2.20;;
3231;SDS011;1628;48.884;9.210;2022-08-11T15:10:39;1.67;;;1.57;;
3231;SDS011;1628;48.884;9.210;2022-08-11T15:13:06;4.37;;;2.00;;
3231;SDS011;1628;48.884;9.210;2022-08-11T15:15:35;3.60;;;1.90;;
3231;SDS011;1628;48.884;9.210;2022-08-11T15:18:21;3.07;;;2.10;;
3231;SDS011;1628;48.884;9.210;2022-08-11T15:20:50;5.30;;;1.70;;
3231;SDS011;1628;48.884;9.210;2022-08-11T15:23:37;4.40;;;1.90;;
3231;SDS011;1628;48.884;9.210;2022-08-11T15:26:24;1.87;;;1.77;;
3231;SDS011;1628;48.884;9.210;2022-08-11T15:29:10;4.53;;;2.47;;
3231;SDS011;1628;48.884;9.210;2022-08-11T15:31:58;2.17;;;2.07;;
3231;SDS011;1628;48.884;9.210;2022-08-11T15:34:43;1.80;;;1.70;;
3231;SDS011;1628;48.884;9.210;2022-08-11T15:37:30;2.00;;;1.90;;
3231;SDS011;1628;48.884;9.210;2022-08-11T15:40:04;1.90;;;1.80;;
3231;SDS011;1628;48.884;9.210;2022-08-11T15:42:56;1.93;;;1.80;;
3231;SDS011;1628;48.884;9.210;2022-08-11T15:45:45;3.20;;;1.90;;
3231;SDS011;1628;48.884;9.210;2022-08-11T15:48:23;2.10;;;2.00;;
3231;SDS011;1628;48.884;9.210;2022-08-11T15:50:55;2.37;;;1.93;;
3231;SDS011;1628;48.884;9.210;2022-08-11T15:53:28;2.47;;;2.27;;
3231;SDS011;1628;48.884;9.210;2022-08-11T15:55:58;2.10;;;2.00;;
3231;SDS011;1628;48.884;9.210;2022-08-11T15:58:29;2.77;;;1.97;;
3231;SDS011;1628;48.884;9.210;2022-08-11T16:01:17;5.10;;;2.00;;
3231;SDS011;1628;48.884;9.210;2022-08-11T16:04:06;2.23;;;2.13;;
3231;SDS011;1628;48.884;9.210;2022-08-11T16:06:37;2.33;;;2.13;;
3231;SDS011;1628;48.884;9.210;2022-08-11T16:09:07;1.83;;;1.73;;
3231;SDS011;1628;48.884;9.210;2022-08-11T16:11:36;1.83;;;1.80;;
3231;SDS011;1628;48.884;9.210;2022-08-11T16:14:05;1.90;;;1.57;;
3231;SDS011;1628;48.884;9.210;2022-08-11T16:16:51;2.63;;;2.00;;
3231;SDS011;1628;48.884;9.210;2022-08-11T16:19:20;2.00;;;1.90;;
3231;SDS011;1628;48.884;9.210;2022-08-11T16:21:50;2.30;;;2.03;;
3231;SDS011;1628;48.884;9.210;2022-08-11T16:24:18;4.67;;;1.90;;
3231;SDS011;1628;48.884;9.210;2022-08-11T16:26:47;3.03;;;2.13;;
3231;SDS011;1628;48.884;9.210;2022-08-11T16:29:16;5.33;;;2.07;;
3231;SDS011;1628;48.884;9.210;2022-08-11T16:31:45;2.10;;;2.00;;
3231;SDS011;1628;48.884;9.210;2022-08-11T16:34:34;1.93;;;1.83;;
3231;SDS011;1628;48.884;9.210;2022-08-11T16:37:20;6.03;;;1.90;;
3231;SDS011;1628;48.884;9.210;2022-08-11T16:40:07;2.57;;;2.20;;
3231;SDS011;1628;48.884;9.210;2022-08-11T16:42:35;1.80;;;1.80;;
3231;SDS011;1628;48.884;9.210;2022-08-11T16:45:21;4.60;;;2.40;;
3231;SDS011;1628;48.884;9.210;2022-08-11T16:48:06;2.03;;;1.90;;
3231;SDS011;1628;48.884;9.210;2022-08-11T16:50:35;2.00;;;1.90;;
3231;SDS011;1628;48.884;9.210;2022-08-11T16:53:04;2.27;;;2.17;;
3231;SDS011;1628;48.884;9.210;2022-08-11T16:55:31;3.87;;;2.27;;
3231;SDS011;1628;48.884;9.210;2022-08-11T16:57:59;1.97;;;1.87;;
3231;SDS011;1628;48.884;9.210;2022-08-11T17:00:44;2.17;;;2.00;;
3231;SDS011;1628;48.884;9.210;2022-08-11T17:03:12;2.03;;;1.93;;
3231;SDS011;1628;48.884;9.210;2022-08-11T17:05:58;2.40;;;2.20;;
3231;SDS011;1628;48.884;9.210;2022-08-11T17:08:45;4.23;;;2.70;;
3231;SDS011;1628;48.884;9.210;2022-08-11T17:11:31;2.43;;;2.23;;
3231;SDS011;1628;48.884;9.210;2022-08-11T17:14:20;2.27;;;2.17;;
3231;SDS011;1628;48.884;9.210;2022-08-11T17:16:51;4.53;;;2.37;;
3231;SDS011;1628;48.884;9.210;2022-08-11T17:19:20;2.60;;;2.13;;
3231;SDS011;1628;48.884;9.210;2022-08-11T17:21:50;6.93;;;2.03;;
3231;SDS011;1628;48.884;9.210;2022-08-11T17:24:36;3.73;;;2.13;;
3231;SDS011;1628;48.884;9.210;2022-08-11T17:27:06;2.60;;;2.50;;
3231;SDS011;1628;48.884;9.210;2022-08-11T17:29:34;2.20;;;2.00;;
3231;SDS011;1628;48.884;9.210;2022-08-11T17:32:04;3.83;;;2.27;;
3231;SDS011;1628;48.884;9.210;2022-08-11T17:34:49;3.80;;;2.17;;
3231;SDS011;1628;48.884;9.210;2022-08-11T17:37:39;2.13;;;2.03;;
3231;SDS011;1628;48.884;9.210;2022-08-11T17:40:07;2.27;;;2.17;;
3231;SDS011;1628;48.884;9.210;2022-08-11T17:42:36;4.17;;;2.10;;
3231;SDS011;1628;48.884;9.210;2022-08-11T17:45:22;2.80;;;2.37;;
3231;SDS011;1628;48.884;9.210;2022-08-11T17:48:07;3.73;;;2.30;;
3231;SDS011;1628;48.884;9.210;2022-08-11T17:50:50;3.13;;;2.00;;
3231;SDS011;1628;48.884;9.210;2022-08-11T17:53:19;2.73;;;2.47;;
3231;SDS011;1628;48.884;9.210;2022-08-11T17:56:04;4.03;;;2.80;;
3231;SDS011;1628;48.884;9.210;2022-08-11T17:58:51;2.80;;;2.60;;
3231;SDS011;1628;48.884;9.210;2022-08-11T18:01:37;6.50;;;2.50;;
3231;SDS011;1628;48.884;9.210;2022-08-11T18:04:06;3.43;;;2.37;;
3231;SDS011;1628;48.884;9.210;2022-08-11T18:06:33;2.30;;;2.20;;
3231;SDS011;1628;48.884;9.210;2022-08-11T18:09:04;3.57;;;2.37;;
3231;SDS011;1628;48.884;9.210;2022-08-11T18:11:54;2.17;;;2.00;;
3231;SDS011;1628;48.884;9.210;2022-08-11T18:14:41;2.27;;;2.17;;
3231;SDS011;1628;48.884;9.210;2022-08-11T18:17:28;2.27;;;2.17;;
3231;SDS011;1628;48.884;9.210;2022-08-11T18:20:13;3.27;;;2.20;;
3231;SDS011;1628;48.884;9.210;2022-08-11T18:22:57;2.27;;;2.17;;
3231;SDS011;1628;48.884;9.210;2022-08-11T18:25:48;2.07;;;1.97;;
3231;SDS011;1628;48.884;9.210;2022-08-11T18:28:36;2.20;;;2.00;;
3231;SDS011;1628;48.884;9.210;2022-08-11T18:31:24;5.10;;;2.10;;
3231;SDS011;1628;48.884;9.210;2022-08-11T18:34:11;4.83;;;1.97;;
3231;SDS011;1628;48.884;9.210;2022-08-11T18:36:59;2.70;;;2.50;;
3231;SDS011;1628;48.884;9.210;2022-08-11T18:39:46;3.50;;;2.47;;
3231;SDS011;1628;48.884;9.210;2022-08-11T18:42:36;5.80;;;2.20;;
3231;SDS011;1628;48.884;9.210;2022-08-11T18:45:23;5.20;;;2.20;;
3231;SDS011;1628;48.884;9.210;2022-08-11T18:48:09;6.00;;;2.50;;
3231;SDS011;1628;48.884;9.210;2022-08-11T18:50:55;2.50;;;2.30;;
3231;SDS011;1628;48.884;9.210;2022-08-11T18:53:43;3.03;;;2.80;;
3231;SDS011;1628;48.884;9.210;2022-08-11T18:56:33;2.37;;;2.27;;
3231;SDS011;1628;48.884;9.210;2022-08-11T18:59:19;4.03;;;2.60;;
3231;SDS011;1628;48.884;9.210;2022-08-11T19:02:08;4.37;;;3.33;;
3231;SDS011;1628;48.884;9.210;2022-08-11T19:04:55;2.97;;;2.67;;
3231;SDS011;1628;48.884;9.210;2022-08-11T19:07:42;4.70;;;2.47;;
3231;SDS011;1628;48.884;9.210;2022-08-11T19:10:28;3.13;;;2.00;;
3231;SDS011;1628;48.884;9.210;2022-08-11T19:13:13;3.53;;;2.90;;
3231;SDS011;1628;48.884;9.210;2022-08-11T19:16:00;2.60;;;2.50;;
3231;SDS011;1628;48.884;9.210;2022-08-11T19:18:47;2.80;;;2.70;;
3231;SDS011;1628;48.884;9.210;2022-08-11T19:21:34;3.23;;;2.93;;
3231;SDS011;1628;48.884;9.210;2022-08-11T19:24:20;3.47;;;2.10;;
3231;SDS011;1628;48.884;9.210;2022-08-11T19:27:05;3.67;;;2.27;;
3231;SDS011;1628;48.884;9.210;2022-08-11T19:29:51;7.63;;;2.80;;
3231;SDS011;1628;48.884;9.210;2022-08-11T19:32:38;3.03;;;2.40;;
3231;SDS011;1628;48.884;9.210;2022-08-11T19:35:24;6.93;;;2.30;;
3231;SDS011;1628;48.884;9.210;2022-08-11T19:38:09;2.70;;;2.50;;
3231;SDS011;1628;48.884;9.210;2022-08-11T19:40:54;2.70;;;2.50;;
3231;SDS011;1628;48.884;9.210;2022-08-11T19:43:41;4.13;;;3.73;;
3231;SDS011;1628;48.884;9.210;2022-08-11T19:46:28;3.63;;;3.00;;
3231;SDS011;1628;48.884;9.210;2022-08-11T19:49:15;9.00;;;3.53;;
3231;SDS011;1628;48.884;9.210;2022-08-11T19:52:01;2.80;;;2.60;;
3231;SDS011;1628;48.884;9.210;2022-08-11T19:54:46;2.73;;;2.53;;
3231;SDS011;1628;48.884;9.210;2022-08-11T19:57:32;4.03;;;3.63;;
3231;SDS011;1628;48.884;9.210;2022-08-11T20:00:19;3.27;;;2.97;;
3231;SDS011;1628;48.884;9.210;2022-08-11T20:03:05;4.30;;;3.60;;
3231;SDS011;1628;48.884;9.210;2022-08-11T20:05:55;5.80;;;3.53;;
3231;SDS011;1628;48.884;9.210;2022-08-11T20:08:43;3.93;;;3.17;;
3231;SDS011;1628;48.884;9.210;2022-08-11T20:11:30;3.20;;;3.00;;
3231;SDS011;1628;48.884;9.210;2022-08-11T20:14:18;4.50;;;3.10;;
3231;SDS011;1628;48.884;9.210;2022-08-11T20:17:04;2.70;;;2.50;;
3231;SDS011;1628;48.884;9.210;2022-08-11T20:19:50;3.93;;;2.33;;
3231;SDS011;1628;48.884;9.210;2022-08-11T20:22:36;2.50;;;2.20;;
3231;SDS011;1628;48.884;9.210;2022-08-11T20:25:22;3.10;;;2.60;;
3231;SDS011;1628;48.884;9.210;2022-08-11T20:28:08;3.30;;;2.50;;
3231;SDS011;1628;48.884;9.210;2022-08-11T20:30:55;2.57;;;2.40;;
3231;SDS011;1628;48.884;9.210;2022-08-11T20:33:39;2.30;;;2.20;;
3231;SDS011;1628;48.884;9.210;2022-08-11T20:36:26;3.33;;;2.40;;
3231;SDS011;1628;48.884;9.210;2022-08-11T20:39:14;2.60;;;2.20;;
3231;SDS011;1628;48.884;9.210;2022-08-11T20:42:00;2.90;;;2.67;;
3231;SDS011;1628;48.884;9.210;2022-08-11T20:44:46;3.43;;;2.20;;
3231;SDS011;1628;48.884;9.210;2022-08-11T20:47:31;2.03;;;1.93;;
3231;SDS011;1628;48.884;9.210;2022-08-11T20:50:19;2.07;;;1.90;;
3231;SDS011;1628;48.884;9.210;2022-08-11T20:53:04;5.20;;;2.67;;
3231;SDS011;1628;48.884;9.210;2022-08-11T20:55:51;3.53;;;2.70;;
3231;SDS011;1628;48.884;9.210;2022-08-11T20:58:36;3.23;;;2.77;;
3231;SDS011;1628;48.884;9.210;2022-08-11T21:01:22;3.37;;;2.83;;
3231;SDS011;1628;48.884;9.210;2022-08-11T21:04:08;7.60;;;2.50;;
3231;SDS011;1628;48.884;9.210;2022-08-11T21:06:52;2.83;;;2.50;;
3231;SDS011;1628;48.884;9.210;2022-08-11T21:09:38;6.90;;;2.67;;
3231;SDS011;1628;48.884;9.210;2022-08-11T21:12:25;2.37;;;2.27;;
3231;SDS011;1628;48.884;9.210;2022-08-11T21:15:12;3.73;;;3.17;;
3231;SDS011;1628;48.884;9.210;2022-08-11T21:17:58;2.73;;;2.47;;
3231;SDS011;1628;48.884;9.210;2022-08-11T21:20:45;3.90;;;2.70;;
3231;SDS011;1628;48.884;9.210;2022-08-11T21:23:31;2.60;;;2.40;;
3231;SDS011;1628;48.884;9.210;2022-08-11T21:26:16;2.43;;;2.23;;
3231;SDS011;1628;48.884;9.210;2022-08-11T21:29:04;2.37;;;2.27;;
3231;SDS011;1628;48.884;9.210;2022-08-11T21:31:49;3.07;;;2.70;;
3231;SDS011;1628;48.884;9.210;2022-08-11T21:34:35;2.83;;;2.13;;
3231;SDS011;1628;48.884;9.210;2022-08-11T21:37:21;4.90;;;2.50;;
3231;SDS011;1628;48.884;9.210;2022-08-11T21:40:07;2.50;;;2.40;;
3231;SDS011;1628;48.884;9.210;2022-08-11T21:42:53;2.47;;;2.27;;
3231;SDS011;1628;48.884;9.210;2022-08-11T21:45:41;2.00;;;1.90;;
3231;SDS011;1628;48.884;9.210;2022-08-11T21:48:26;2.70;;;2.50;;
3231;SDS011;1628;48.884;9.210;2022-08-11T21:51:12;3.03;;;2.67;;
3231;SDS011;1628;48.884;9.210;2022-08-11T21:53:56;2.80;;;2.60;;
3231;SDS011;1628;48.884;9.210;2022-08-11T21:56:44;2.67;;;2.47;;
3231;SDS011;1628;48.884;9.210;2022-08-11T21:59:31;6.10;;;2.33;;
